Time;durP1;ratioP1;P1;durP2;ratioP2;P2;SDS_P1;SDS_P2;PMS_P1;PMS_P2;Temp;Humidity;BMP_temperature;BMP_pressure;BME280_temperature;BME280_humidity;BME280_pressure;Samples;Min_cycle;Max_cycle;Signal;HPM_P1;HPM_P2
2022/01/29 00:00:40;;;;;;;46.97;26.00;;;;;;;5.15;91.93;102806.94;5045403;28;20037;-74
2022/01/29 00:03:05;;;;;;;45.55;27.38;;;;;;;5.15;92.17;102806.94;5037568;28;20037;-74
2022/01/29 00:05:31;;;;;;;46.00;25.88;;;;;;;5.15;91.94;102791.81;5034073;28;20129;-74
2022/01/29 00:07:56;;;;;;;42.08;25.10;;;;;;;5.19;91.75;102793.50;5039677;28;20043;-74
2022/01/29 00:10:21;;;;;;;47.67;27.20;;;;;;;5.19;91.61;102782.84;5045419;28;20115;-74
2022/01/29 00:12:47;;;;;;;45.53;27.70;;;;;;;5.19;91.78;102772.19;5039211;28;20136;-74
2022/01/29 00:15:12;;;;;;;41.88;25.45;;;;;;;5.20;91.73;102771.28;5029083;28;20041;-74
2022/01/29 00:17:38;;;;;;;45.83;26.10;;;;;;;5.20;92.02;102754.41;5026299;28;20112;-74
2022/01/29 00:20:06;;;;;;;49.90;27.38;;;;;;;5.19;91.81;102761.53;5031975;28;20026;-74
2022/01/29 00:22:31;;;;;;;41.90;25.25;;;;;;;5.20;91.93;102762.41;5032897;28;20338;-74
2022/01/29 00:24:57;;;;;;;43.00;24.27;;;;;;;5.20;92.01;102757.94;5029921;28;20033;-74
2022/01/29 00:27:25;;;;;;;53.08;27.30;;;;;;;5.21;92.02;102753.50;5035759;28;20479;-74
2022/01/29 00:29:51;;;;;;;42.17;25.52;;;;;;;5.19;91.94;102750.84;5043267;28;20047;-74
2022/01/29 00:32:16;;;;;;;42.38;23.90;;;;;;;5.21;91.99;102754.38;5039242;28;20029;-74
2022/01/29 00:34:41;;;;;;;45.92;26.75;;;;;;;5.22;92.04;102742.78;5029491;28;20059;-74
2022/01/29 00:37:07;;;;;;;42.97;26.08;;;;;;;5.24;92.01;102738.31;5027940;28;20032;-74
2022/01/29 00:39:32;;;;;;;52.17;27.17;;;;;;;5.22;91.90;102724.13;5029474;28;20033;-74
2022/01/29 00:41:58;;;;;;;48.35;28.42;;;;;;;5.23;91.81;102728.56;5033283;28;20119;-74
2022/01/29 00:44:23;;;;;;;44.30;26.20;;;;;;;5.24;91.88;102730.34;5030579;28;20441;-74
2022/01/29 00:46:48;;;;;;;48.00;25.63;;;;;;;5.25;91.82;102745.41;5031325;28;20067;-74
2022/01/29 00:49:17;;;;;;;39.45;24.63;;;;;;;5.25;91.61;102740.06;5046131;28;20420;-74
2022/01/29 00:51:42;;;;;;;45.53;26.08;;;;;;;5.27;92.01;102742.72;5033568;28;20338;-74
2022/01/29 00:54:07;;;;;;;45.85;26.55;;;;;;;5.28;92.02;102732.94;5043198;28;20033;-74
2022/01/29 00:56:33;;;;;;;47.80;28.33;;;;;;;5.30;91.73;102725.75;5041002;28;20108;-74
2022/01/29 00:58:58;;;;;;;41.90;25.38;;;;;;;5.29;91.95;102724.03;5033678;28;20029;-74
2022/01/29 01:01:24;;;;;;;49.05;25.58;;;;;;;5.31;92.06;102727.53;5042975;28;20069;-74
2022/01/29 01:03:50;;;;;;;48.60;27.70;;;;;;;5.31;91.89;102714.19;5043961;28;20432;-74
2022/01/29 01:06:16;;;;;;;44.42;25.58;;;;;;;5.30;91.96;102718.66;5029429;28;20429;-74
2022/01/29 01:08:41;;;;;;;44.65;26.30;;;;;;;5.32;92.50;102699.97;5035859;28;20029;-74
2022/01/29 01:11:06;;;;;;;41.47;25.88;;;;;;;5.33;92.52;102710.59;5038506;28;20466;-74
2022/01/29 01:13:33;;;;;;;44.08;25.20;;;;;;;5.33;92.84;102691.94;5030855;28;20258;-74
2022/01/29 01:15:59;;;;;;;43.03;27.13;;;;;;;5.33;92.75;102691.94;5042633;28;20036;-74
2022/01/29 01:18:24;;;;;;;46.55;25.25;;;;;;;5.33;92.83;102677.69;5025751;28;20037;-74
2022/01/29 01:20:50;;;;;;;43.08;27.10;;;;;;;5.33;93.04;102681.28;5032375;28;20043;-74
2022/01/29 01:23:15;;;;;;;44.42;27.65;;;;;;;5.33;92.89;102675.03;5033112;28;20029;-74
2022/01/29 01:25:41;;;;;;;49.72;27.52;;;;;;;5.31;93.14;102668.88;5029523;28;20426;-74
2022/01/29 01:28:06;;;;;;;48.67;27.15;;;;;;;5.29;93.23;102658.25;5035641;28;20140;-74
2022/01/29 01:30:32;;;;;;;50.53;26.45;;;;;;;5.29;93.16;102660.03;5027258;28;20026;-74
2022/01/29 01:33:00;;;;;;;46.17;25.02;;;;;;;5.29;93.65;102652.06;5025497;28;20104;-74
2022/01/29 01:35:31;;;;;;;45.33;25.50;;;;;;;5.29;93.79;102652.06;5043068;28;20442;-73
2022/01/29 01:40:43;;;;;;;45.50;25.08;;;;;;;5.30;93.90;102640.44;5020865;28;20505;-74
2022/01/29 01:43:09;;;;;;;47.60;28.40;;;;;;;5.28;94.27;102639.63;5042294;28;20033;-74
2022/01/29 01:45:34;;;;;;;45.10;26.90;;;;;;;5.28;94.40;102642.28;5044692;28;20400;-74
2022/01/29 01:48:04;;;;;;;46.60;26.27;;;;;;;5.25;94.66;102644.09;5015026;28;20350;-74
2022/01/29 01:50:30;;;;;;;;;;;;;;;5.31;94.30;102647.56;5012214;28;20036;-74
2022/01/29 01:52:55;;;;;;;47.95;25.30;;;;;;;5.25;94.92;102636.09;5031704;28;19917;-74
2022/01/29 01:55:22;;;;;;;37.42;23.30;;;;;;;5.23;95.64;102632.59;5025477;28;20131;-74
2022/01/29 01:57:48;;;;;;;42.58;24.95;;;;;;;5.20;96.29;102624.66;5033436;28;20024;-74
2022/01/29 02:00:13;;;;;;;46.22;26.80;;;;;;;5.17;96.68;102627.41;5047655;28;20033;-74
2022/01/29 02:02:39;;;;;;;39.60;24.15;;;;;;;5.16;96.70;102622.97;5034045;28;20450;-74
2022/01/29 02:05:05;;;;;;;46.40;25.83;;;;;;;5.14;97.01;102607.91;5034632;28;20040;-74
2022/01/29 02:07:30;;;;;;;42.42;23.45;;;;;;;5.13;97.15;102612.38;5044938;28;20158;-74
2022/01/29 02:09:55;;;;;;;39.83;24.85;;;;;;;5.12;97.17;102609.75;5042556;28;20112;-74
2022/01/29 02:12:24;;;;;;;38.58;23.17;;;;;;;5.13;97.23;102600.88;5034450;28;20118;-74
2022/01/29 02:14:50;;;;;;;39.15;24.27;;;;;;;5.12;97.07;102585.78;5029371;28;20520;-74
2022/01/29 02:17:16;;;;;;;42.03;24.05;;;;;;;5.08;97.33;102592.94;5047181;28;20537;-74
2022/01/29 02:19:41;;;;;;;38.55;22.80;;;;;;;5.08;97.51;102588.50;5032849;28;20187;-74
2022/01/29 02:22:07;;;;;;;40.47;23.92;;;;;;;5.08;97.49;102582.28;5032246;28;20413;-74
2022/01/29 02:24:32;;;;;;;38.70;23.40;;;;;;;5.08;97.56;102591.19;5020695;28;20044;-74
2022/01/29 02:26:57;;;;;;;38.10;23.15;;;;;;;5.06;97.85;102574.31;5025129;28;20511;-74
2022/01/29 02:29:23;;;;;;;37.33;21.65;;;;;;;5.08;97.83;102574.28;5037109;28;20116;-74
2022/01/29 02:31:52;;;;;;;35.65;21.95;;;;;;;5.08;97.96;102584.94;5043016;28;20024;-74
2022/01/29 02:34:18;;;;;;;38.97;23.83;;;;;;;5.11;97.75;102584.91;5047208;28;20369;-74
2022/01/29 02:36:45;;;;;;;39.22;22.80;;;;;;;5.11;98.13;102576.00;5039292;28;20036;-74
2022/01/29 02:39:11;;;;;;;40.35;22.65;;;;;;;5.10;98.41;102569.81;5030631;28;20112;-74
2022/01/29 02:41:39;;;;;;;37.05;23.40;;;;;;;5.12;98.24;102565.31;5030197;28;20056;-74
2022/01/29 02:44:05;;;;;;;37.67;22.33;;;;;;;5.12;98.81;102570.66;5039924;28;20037;-74
2022/01/29 02:46:48;;;;;;;36.70;21.52;;;;;;;5.13;98.66;102580.41;5041154;28;20024;-74
2022/01/29 02:49:15;;;;;;;34.97;21.13;;;;;;;5.13;98.77;102569.75;5040211;28;20033;-74
2022/01/29 02:51:49;;;;;;;35.03;21.27;;;;;;;5.13;98.83;102569.75;5034514;28;20025;-74
2022/01/29 02:54:14;;;;;;;37.70;23.58;;;;;;;5.14;98.55;102566.19;5039532;28;20017;-74
2022/01/29 02:56:40;;;;;;;38.88;21.67;;;;;;;5.16;98.49;102564.34;5044144;28;20170;-74
2022/01/29 02:59:05;;;;;;;36.45;22.05;;;;;;;5.16;98.96;102559.00;5033341;28;20021;-74
2022/01/29 03:01:31;;;;;;;37.10;21.08;;;;;;;5.18;99.06;102556.31;5037433;28;20025;-74
2022/01/29 03:03:56;;;;;;;41.33;22.30;;;;;;;5.20;98.81;102550.03;5030822;28;20022;-74
2022/01/29 03:06:21;;;;;;;33.45;20.95;;;;;;;5.22;99.07;102558.84;5038650;28;20108;-74
2022/01/29 03:08:47;;;;;;;38.42;23.27;;;;;;;5.22;99.12;102553.53;5042142;28;20441;-74
2022/01/29 03:11:12;;;;;;;35.78;21.70;;;;;;;5.24;98.90;102556.16;5029658;28;20100;-74
2022/01/29 03:13:38;;;;;;;40.47;24.10;;;;;;;5.21;99.31;102542.91;5030375;28;20044;-74
2022/01/29 03:16:03;;;;;;;36.08;22.00;;;;;;;5.21;99.14;102542.91;5038254;28;20028;-74
2022/01/29 03:18:29;;;;;;;44.17;23.50;;;;;;;5.20;99.18;102544.72;5030852;28;20039;-74
2022/01/29 03:20:54;;;;;;;40.33;22.25;;;;;;;5.20;99.43;102531.38;5030519;28;20040;-74
2022/01/29 03:23:19;;;;;;;37.70;20.95;;;;;;;5.21;99.31;102535.81;5032573;28;20049;-74
2022/01/29 03:25:45;;;;;;;41.05;22.80;;;;;;;5.22;99.35;102528.66;5031593;28;20033;-74
2022/01/29 03:28:10;;;;;;;38.78;22.35;;;;;;;5.23;99.12;102525.09;5028783;28;20362;-74
2022/01/29 03:30:35;;;;;;;37.38;23.52;;;;;;;5.21;99.38;102524.25;5042785;28;20033;-74
2022/01/29 03:33:00;;;;;;;39.33;22.45;;;;;;;5.22;99.50;102518.00;5030956;28;20115;-74
2022/01/29 03:35:26;;;;;;;39.90;23.48;;;;;;;5.22;99.38;102518.88;5030376;28;20075;-74
2022/01/29 03:37:51;;;;;;;38.78;22.70;;;;;;;5.24;99.54;102514.41;5034308;28;20021;-74
2022/01/29 03:40:16;;;;;;;41.83;23.98;;;;;;;5.25;99.57;102520.59;5029438;28;20113;-74
2022/01/29 03:42:47;;;;;;;39.97;21.88;;;;;;;5.25;99.44;102515.28;5030081;28;20036;-74
2022/01/29 03:45:14;;;;;;;40.28;21.75;;;;;;;5.27;99.64;102501.91;5028733;28;20068;-75
2022/01/29 03:47:40;;;;;;;37.88;22.65;;;;;;;5.26;99.53;102501.03;5045398;28;20033;-75
2022/01/29 03:50:05;;;;;;;34.78;21.55;;;;;;;5.26;99.67;102501.03;5034413;28;20087;-76
2022/01/29 03:52:31;;;;;;;41.33;23.52;;;;;;;5.27;99.47;102502.81;5033968;28;20025;-76
2022/01/29 03:54:56;;;;;;;38.25;21.25;;;;;;;5.29;99.28;102505.41;5029646;28;20485;-76
2022/01/29 03:57:21;;;;;;;37.97;21.60;;;;;;;5.30;99.26;102496.50;5040624;28;20418;-76
2022/01/29 03:59:46;;;;;;;36.47;21.42;;;;;;;5.31;99.24;102491.13;5041340;28;20036;-76
2022/01/29 04:02:11;;;;;;;36.97;20.10;;;;;;;5.32;99.34;102492.00;5045672;28;20044;-76
2022/01/29 04:04:37;;;;;;;37.47;21.08;;;;;;;5.33;99.30;102497.31;5032344;28;20390;-76
2022/01/29 04:07:09;;;;;;;34.00;19.80;;;;;;;5.35;99.48;102494.59;5027297;28;20107;-74
2022/01/29 04:09:34;;;;;;;33.95;20.63;;;;;;;5.35;99.35;102487.47;5020570;28;20101;-74
2022/01/29 04:12:00;;;;;;;32.70;19.60;;;;;;;5.38;99.38;102483.84;5027689;28;20040;-74
2022/01/29 04:14:31;;;;;;;34.63;20.08;;;;;;;5.39;99.31;102497.16;5028819;28;20049;-74
2022/01/29 04:16:57;;;;;;;30.70;18.80;;;;;;;5.41;99.25;102489.09;5039901;28;20535;-74
2022/01/29 04:19:22;;;;;;;34.60;19.65;;;;;;;5.42;99.31;102488.22;5037210;28;20080;-74
2022/01/29 04:21:47;;;;;;;34.83;18.35;;;;;;;5.45;99.46;102488.13;5028200;28;20104;-74
2022/01/29 04:24:12;;;;;;;32.60;19.08;;;;;;;5.46;99.31;102479.22;5030554;28;20116;-74
2022/01/29 04:26:38;;;;;;;35.00;18.48;;;;;;;5.47;99.59;102475.59;5030087;28;20026;-74
2022/01/29 04:29:07;;;;;;;34.40;19.15;;;;;;;5.47;99.46;102477.41;5043333;28;20388;-74
2022/01/29 04:31:40;;;;;;;33.35;18.27;;;;;;;5.49;99.51;102467.56;5036213;28;20528;-74
2022/01/29 04:34:06;;;;;;;32.90;17.98;;;;;;;5.50;99.46;102469.34;5029776;28;20039;-74
2022/01/29 04:36:31;;;;;;;32.75;18.33;;;;;;;5.52;99.67;102464.81;5026721;28;20401;-74
2022/01/29 04:38:57;;;;;;;34.20;18.20;;;;;;;5.52;99.54;102465.72;5028290;28;20063;-74
2022/01/29 04:41:22;;;;;;;32.83;19.27;;;;;;;5.55;99.89;102459.41;5027932;28;20022;-74
2022/01/29 04:43:48;;;;;;;33.53;18.77;;;;;;;5.56;99.92;102459.41;5036319;28;20035;-74
2022/01/29 04:46:13;;;;;;;35.20;19.08;;;;;;;5.58;99.68;102459.34;5041335;28;20059;-74
2022/01/29 04:48:38;;;;;;;35.35;19.73;;;;;;;5.60;99.92;102461.03;5037788;28;20099;-74
2022/01/29 04:51:04;;;;;;;34.25;19.38;;;;;;;5.64;100.00;102463.63;5043009;28;20044;-74
2022/01/29 04:53:29;;;;;;;32.83;18.85;;;;;;;5.64;100.00;102451.19;5027743;28;20476;-74
2022/01/29 04:55:54;;;;;;;36.35;20.00;;;;;;;5.65;100.00;102460.03;5046138;28;20052;-74
2022/01/29 04:58:20;;;;;;;36.28;20.33;;;;;;;5.64;100.00;102448.50;5047916;28;20029;-74
2022/01/29 05:00:45;;;;;;;38.15;19.25;;;;;;;5.65;100.00;102449.38;5030132;28;20031;-74
2022/01/29 05:03:12;;;;;;;33.42;19.40;;;;;;;5.66;100.00;102443.13;5041812;28;20063;-74
2022/01/29 05:05:39;;;;;;;35.03;19.85;;;;;;;5.66;100.00;102433.31;5040221;28;20033;-74
2022/01/29 05:08:05;;;;;;;37.95;19.30;;;;;;;5.67;100.00;102431.56;5033397;28;20520;-74
2022/01/29 05:10:30;;;;;;;36.60;19.15;;;;;;;5.68;100.00;102434.19;5044364;28;20037;-74
2022/01/29 05:13:08;;;;;;;39.00;21.15;;;;;;;5.70;100.00;102424.34;5028839;28;20486;-74
2022/01/29 05:15:39;;;;;;;34.47;19.83;;;;;;;5.71;100.00;102433.19;5045776;28;20020;-74
2022/01/29 05:29:05;;;;;;;39.42;21.20;;;;;;;5.79;100.00;102404.53;5028934;28;20124;-74
2022/01/29 05:31:30;;;;;;;37.20;22.35;;;;;;;5.81;100.00;102407.16;5032358;28;20131;-74
2022/01/29 05:33:56;;;;;;;40.70;22.65;;;;;;;5.82;100.00;102407.09;5040914;28;20076;-74
2022/01/29 05:36:21;;;;;;;35.35;21.90;;;;;;;5.84;100.00;102413.28;5032356;28;20422;-74
2022/01/29 05:38:47;;;;;;;37.38;20.83;;;;;;;5.85;100.00;102412.34;5029332;28;20064;-74
2022/01/29 05:41:12;;;;;;;36.78;20.48;;;;;;;5.87;100.00;102409.63;5042839;28;20400;-74
2022/01/29 05:43:38;;;;;;;40.83;22.80;;;;;;;5.88;100.00;102417.59;5036882;28;20127;-74
2022/01/29 05:46:03;;;;;;;38.90;22.25;;;;;;;5.89;100.00;102422.03;5029407;28;20037;-74
2022/01/29 05:48:28;;;;;;;35.33;21.63;;;;;;;5.92;100.00;102426.41;5026786;28;20033;-74
2022/01/29 05:50:55;;;;;;;38.22;22.77;;;;;;;5.92;100.00;102405.06;5029799;28;20107;-74
2022/01/29 05:53:20;;;;;;;40.95;22.80;;;;;;;5.92;100.00;102405.91;5033774;28;20122;-74
2022/01/29 05:55:45;;;;;;;37.00;21.48;;;;;;;5.96;100.00;102404.06;5046513;28;20020;-74
2022/01/29 05:58:11;;;;;;;37.38;22.13;;;;;;;5.97;100.00;102407.59;5045843;28;20105;-74
2022/01/29 06:00:36;;;;;;;38.67;22.48;;;;;;;5.99;100.00;102405.78;5039610;28;20045;-74
2022/01/29 06:03:03;;;;;;;38.95;21.92;;;;;;;5.99;100.00;102396.00;5037040;28;20041;-74
2022/01/29 06:05:29;;;;;;;36.22;21.35;;;;;;;6.00;100.00;102410.19;5034349;28;20104;-74
2022/01/29 06:07:55;;;;;;;40.00;23.52;;;;;;;6.02;100.00;102400.34;5028763;28;20128;-74
2022/01/29 06:10:20;;;;;;;39.95;23.05;;;;;;;6.02;100.00;102400.34;5019115;28;20029;-74
2022/01/29 06:13:08;;;;;;;37.53;22.10;;;;;;;6.04;100.00;102393.19;5028166;28;20124;-74
2022/01/29 06:15:38;;;;;;;40.22;22.85;;;;;;;6.05;100.00;102392.28;5015664;28;20577;-74
2022/01/29 06:18:03;;;;;;;40.15;22.73;;;;;;;6.06;100.00;102388.66;5031045;28;20044;-74
2022/01/29 06:20:29;;;;;;;39.97;21.70;;;;;;;6.08;100.00;102394.84;5042084;28;20021;-74
2022/01/29 06:22:54;;;;;;;33.63;21.38;;;;;;;6.09;100.00;102394.81;5025883;28;20489;-74
2022/01/29 06:25:20;;;;;;;39.00;22.90;;;;;;;6.12;100.00;102396.50;5038744;28;20074;-74
2022/01/29 06:27:45;;;;;;;38.00;23.08;;;;;;;6.12;100.00;102383.16;5030752;28;20477;-74
2022/01/29 06:30:12;;;;;;;34.45;20.92;;;;;;;6.14;100.00;102378.63;5038599;28;20025;-74
2022/01/29 06:32:37;;;;;;;39.00;22.92;;;;;;;6.16;100.00;102384.78;5042323;28;20064;-74
2022/01/29 06:35:03;;;;;;;39.38;23.08;;;;;;;6.18;100.00;102384.75;5028131;28;20064;-74
2022/01/29 06:37:29;;;;;;;37.88;23.23;;;;;;;6.17;100.00;102381.22;5035870;28;20468;-74
2022/01/29 06:39:54;;;;;;;38.08;22.08;;;;;;;6.19;100.00;102376.69;5031410;28;20112;-74
2022/01/29 06:42:19;;;;;;;41.65;22.98;;;;;;;6.21;100.00;102376.63;5025491;28;20728;-74
2022/01/29 06:44:44;;;;;;;37.70;24.30;;;;;;;6.22;100.00;102379.28;5033599;28;20397;-74
2022/01/29 06:47:10;;;;;;;39.88;22.88;;;;;;;6.24;100.00;102381.91;5024713;28;20033;-74
2022/01/29 06:49:35;;;;;;;38.28;22.20;;;;;;;6.25;100.00;102370.28;5029585;28;20486;-74
2022/01/29 06:52:00;;;;;;;35.55;22.23;;;;;;;6.26;100.00;102369.38;5035797;28;20055;-74
2022/01/29 06:54:26;;;;;;;35.63;21.30;;;;;;;6.29;100.00;102370.16;5035328;28;20029;-74
2022/01/29 06:56:51;;;;;;;37.10;22.58;;;;;;;6.32;100.00;102371.00;5029272;28;20498;-74
2022/01/29 06:59:16;;;;;;;38.10;24.40;;;;;;;6.34;100.00;102359.34;5030976;28;20047;-74
2022/01/29 07:01:41;;;;;;;37.42;22.88;;;;;;;6.35;100.00;102358.41;5040350;28;20032;-74
2022/01/29 07:04:07;;;;;;;37.80;23.98;;;;;;;6.34;100.00;102350.44;5033898;28;20041;-75
2022/01/29 07:06:32;;;;;;;38.85;23.45;;;;;;;6.38;100.00;102354.78;5032226;28;20581;-74
2022/01/29 07:08:58;;;;;;;38.28;23.45;;;;;;;6.38;100.00;102365.44;5030933;28;20025;-75
2022/01/29 07:11:24;;;;;;;37.20;22.05;;;;;;;6.40;100.00;102350.25;5031079;28;20025;-75
2022/01/29 07:14:00;;;;;;;37.03;21.70;;;;;;;6.41;100.00;102352.91;5033226;28;20053;-74
2022/01/29 07:16:25;;;;;;;38.60;22.23;;;;;;;6.44;100.00;102351.91;5025829;28;20035;-74
2022/01/29 07:18:51;;;;;;;37.58;22.25;;;;;;;6.45;100.00;102342.97;5025030;28;20037;-74
2022/01/29 07:21:16;;;;;;;39.42;22.15;;;;;;;6.47;100.00;102343.78;5029513;28;20033;-74
2022/01/29 07:23:41;;;;;;;37.05;21.77;;;;;;;6.47;100.00;102344.69;5029045;28;20155;-74
2022/01/29 07:26:06;;;;;;;37.83;21.65;;;;;;;6.48;100.00;102345.53;5031213;28;20040;-74
2022/01/29 07:28:32;;;;;;;36.80;21.90;;;;;;;6.52;100.00;102344.53;5029891;28;20029;-74
2022/01/29 07:30:57;;;;;;;35.05;22.05;;;;;;;6.53;100.00;102332.94;5030387;28;20460;-74
2022/01/29 07:33:23;;;;;;;34.35;21.55;;;;;;;6.54;100.00;102345.34;5050377;28;20020;-74
2022/01/29 07:35:48;;;;;;;40.00;22.08;;;;;;;6.56;100.00;102348.84;5048964;28;20044;-74
2022/01/29 07:38:14;;;;;;;36.33;20.77;;;;;;;6.58;100.00;102357.69;5048442;28;20037;-74
2022/01/29 07:40:39;;;;;;;33.75;20.38;;;;;;;6.60;100.00;102345.16;5039338;28;20049;-74
2022/01/29 07:43:04;;;;;;;35.05;21.70;;;;;;;6.61;100.00;102341.53;5023954;28;20033;-74
2022/01/29 07:45:30;;;;;;;39.08;21.70;;;;;;;6.63;100.00;102334.38;5028281;28;20436;-74
2022/01/29 07:47:55;;;;;;;38.83;22.50;;;;;;;6.65;100.00;102335.19;5029155;28;20037;-74
2022/01/29 07:50:20;;;;;;;33.75;20.80;;;;;;;6.68;100.00;102334.22;5028214;28;20445;-74
2022/01/29 07:52:46;;;;;;;35.17;21.42;;;;;;;6.70;100.00;102335.03;5028768;28;20018;-74
2022/01/29 07:55:11;;;;;;;34.63;20.55;;;;;;;6.72;100.00;102333.19;5028246;28;20473;-74
2022/01/29 07:57:36;;;;;;;33.55;20.25;;;;;;;6.74;100.00;102327.81;5017874;28;20471;-74
2022/01/29 08:00:03;;;;;;;33.90;20.73;;;;;;;6.74;100.00;102319.78;5040474;28;20117;-74
2022/01/29 08:02:28;;;;;;;35.53;20.98;;;;;;;6.77;100.00;102333.03;5036269;28;20081;-74
2022/01/29 08:04:53;;;;;;;33.00;20.13;;;;;;;6.80;100.00;102324.91;5029948;28;20115;-74
2022/01/29 08:07:18;;;;;;;35.10;20.75;;;;;;;6.82;100.00;102313.25;5029304;28;20153;-74
2022/01/29 08:09:44;;;;;;;36.92;21.90;;;;;;;6.86;100.00;102321.16;5036129;28;20033;-74
2022/01/29 08:12:09;;;;;;;34.20;20.65;;;;;;;6.89;100.00;102321.91;5028336;28;20107;-74
2022/01/29 08:14:34;;;;;;;34.72;20.85;;;;;;;6.92;100.00;102311.13;5029107;28;20106;-74
2022/01/29 08:17:00;;;;;;;31.98;20.67;;;;;;;6.95;100.00;102311.00;5028413;28;20206;-74
2022/01/29 08:19:25;;;;;;;36.67;20.30;;;;;;;6.98;100.00;102307.38;5027696;28;20037;-74
2022/01/29 08:21:50;;;;;;;35.88;20.50;;;;;;;7.00;100.00;102306.41;5029586;28;20053;-74
2022/01/29 08:24:16;;;;;;;36.95;21.10;;;;;;;7.03;100.00;102288.50;5026251;28;20492;-74
2022/01/29 08:26:41;;;;;;;34.38;20.48;;;;;;;7.06;100.00;102299.06;5027432;28;20036;-74
2022/01/29 08:29:06;;;;;;;32.47;20.23;;;;;;;7.10;100.00;102295.38;5028764;28;20041;-74
2022/01/29 08:31:32;;;;;;;34.53;21.25;;;;;;;7.12;100.00;102290.84;5032858;28;20033;-74
2022/01/29 08:33:58;;;;;;;31.27;19.33;;;;;;;7.15;100.00;102294.28;5046542;28;20025;-74
2022/01/29 08:36:23;;;;;;;33.55;20.40;;;;;;;7.16;100.00;102292.50;5030828;28;20310;-74
2022/01/29 08:38:49;;;;;;;34.70;20.08;;;;;;;7.17;100.00;102284.44;5012535;28;20048;-74
2022/01/29 08:41:14;;;;;;;33.95;19.92;;;;;;;7.21;100.00;102284.31;5008143;28;20402;-74
2022/01/29 08:43:39;;;;;;;33.05;18.85;;;;;;;7.24;100.00;102277.03;5007460;28;20022;-74
2022/01/29 08:46:05;;;;;;;31.52;18.77;;;;;;;7.26;100.00;102279.66;5010600;28;20378;-74
2022/01/29 08:48:30;;;;;;;35.20;19.63;;;;;;;7.28;100.00;102276.00;5006464;28;20112;-74
2022/01/29 08:50:55;;;;;;;32.78;18.67;;;;;;;7.31;100.00;102273.22;5009282;28;20112;-74
2022/01/29 08:53:21;;;;;;;32.83;19.60;;;;;;;7.32;100.00;102272.28;5008699;28;20466;-74
2022/01/29 08:55:47;;;;;;;32.88;19.17;;;;;;;7.35;100.00;102274.00;5007099;28;20106;-74
2022/01/29 08:58:12;;;;;;;32.03;19.17;;;;;;;7.37;100.00;102273.94;5019793;28;20026;-74
2022/01/29 09:00:41;;;;;;;31.25;20.13;;;;;;;7.39;100.00;102278.28;5027221;28;20025;-74
2022/01/29 09:03:06;;;;;;;30.80;19.00;;;;;;;7.40;100.00;102276.50;5027074;28;20127;-74
2022/01/29 09:05:32;;;;;;;31.38;16.63;;;;;;;7.41;100.00;102275.53;5030269;28;20542;-74
2022/01/29 09:07:58;;;;;;;34.53;21.52;;;;;;;7.41;100.00;102264.84;5027320;28;20416;-74
2022/01/29 09:10:23;;;;;;;36.75;19.45;;;;;;;7.44;100.00;102262.06;5028192;28;20061;-74
2022/01/29 09:12:48;;;;;;;31.13;19.25;;;;;;;7.47;100.00;102267.31;5028376;28;20749;-74
2022/01/29 09:15:14;;;;;;;31.55;18.42;;;;;;;7.50;100.00;102256.50;5037940;28;20107;-74
2022/01/29 09:17:41;;;;;;;33.25;18.25;;;;;;;7.52;100.00;102257.28;5034704;28;20041;-74
2022/01/29 09:20:10;;;;;;;31.77;19.00;;;;;;;7.54;100.00;102258.13;5027499;28;20036;-75
2022/01/29 09:22:37;;;;;;;31.67;18.70;;;;;;;7.55;100.00;102257.16;5046417;28;20055;-74
2022/01/29 09:25:03;;;;;;;29.63;16.45;;;;;;;7.58;100.00;102258.88;5039983;28;20028;-74
2022/01/29 09:27:28;;;;;;;30.63;17.23;;;;;;;7.59;100.00;102252.59;5028802;28;20052;-74
2022/01/29 09:29:53;;;;;;;30.73;18.13;;;;;;;7.61;100.00;102253.38;5027750;28;20493;-74
2022/01/29 09:32:18;;;;;;;30.77;17.23;;;;;;;7.65;100.00;102261.25;5029644;28;20033;-74
2022/01/29 09:34:44;;;;;;;33.78;19.17;;;;;;;7.67;100.00;102259.41;5026867;28;20029;-74
2022/01/29 09:37:09;;;;;;;32.22;17.98;;;;;;;7.70;100.00;102256.59;5033615;28;20033;-74
2022/01/29 09:39:34;;;;;;;30.20;17.30;;;;;;;7.74;100.00;102259.16;5029291;28;20389;-74
2022/01/29 09:42:01;;;;;;;33.90;18.27;;;;;;;7.76;100.00;102262.63;5021555;28;20028;-74
2022/01/29 09:44:26;;;;;;;27.73;15.57;;;;;;;7.78;100.00;102267.00;5027235;28;20021;-75
2022/01/29 09:46:52;;;;;;;29.00;16.48;;;;;;;7.80;100.00;102258.91;5015857;28;20040;-74
2022/01/29 09:49:18;;;;;;;28.50;16.75;;;;;;;7.83;99.79;102253.44;5009078;28;20034;-74
2022/01/29 09:51:43;;;;;;;32.72;18.00;;;;;;;7.85;99.82;102259.63;5016698;28;20116;-74
2022/01/29 09:54:08;;;;;;;30.88;17.58;;;;;;;7.85;99.78;102262.28;5029426;28;20175;-74
2022/01/29 09:56:34;;;;;;;30.90;17.08;;;;;;;7.86;99.61;102262.22;5028661;28;20044;-74
2022/01/29 09:58:59;;;;;;;33.03;17.55;;;;;;;7.90;99.64;102262.97;5022529;28;20167;-74
2022/01/29 10:01:24;;;;;;;29.48;16.42;;;;;;;7.92;99.68;102261.13;5028454;28;20024;-74
2022/01/29 10:04:00;;;;;;;29.00;16.05;;;;;;;7.96;99.41;102268.06;5042777;28;20469;-75
2022/01/29 10:06:26;;;;;;;31.10;17.40;;;;;;;8.01;99.10;102262.56;5026363;28;20110;-77
2022/01/29 10:08:51;;;;;;;30.05;16.58;;;;;;;8.04;98.95;102249.03;5027002;28;20033;-77
2022/01/29 10:11:23;;;;;;;27.80;16.70;;;;;;;8.08;98.50;102247.09;5024240;28;20045;-77
2022/01/29 10:13:49;;;;;;;28.95;16.45;;;;;;;8.13;98.57;102267.41;5015819;28;20564;-77
2022/01/29 10:16:20;;;;;;;31.50;18.23;;;;;;;8.16;98.16;102247.69;5017393;28;20025;-77
2022/01/29 10:18:58;;;;;;;30.33;17.17;;;;;;;8.19;97.80;102247.53;5019593;28;20040;-77
2022/01/29 10:21:29;;;;;;;30.13;17.05;;;;;;;8.21;97.60;102240.31;5020700;28;20029;-77
2022/01/29 10:24:08;;;;;;;30.73;17.27;;;;;;;8.26;97.70;102242.78;5023987;28;20033;-77
2022/01/29 10:26:38;;;;;;;28.05;17.17;;;;;;;8.29;97.33;102238.19;5028311;28;20466;-77
2022/01/29 10:29:07;;;;;;;28.73;14.80;;;;;;;8.32;97.55;102240.75;5022681;28;20030;-77
2022/01/29 10:31:47;;;;;;;28.25;15.75;;;;;;;8.37;97.11;102227.16;5028715;28;20025;-77
2022/01/29 10:34:16;;;;;;;;;;;;;;;8.40;96.76;102233.28;5027111;28;20471;-77
2022/01/29 10:36:41;;;;;;;30.40;15.57;;;;;;;8.44;96.46;102222.44;5030044;28;19921;-77
2022/01/29 10:39:06;;;;;;;26.92;14.38;;;;;;;8.46;95.98;102207.19;5021288;28;20034;-77
2022/01/29 10:41:32;;;;;;;28.80;14.43;;;;;;;8.48;95.52;102202.63;5018685;28;20029;-77
2022/01/29 10:44:16;;;;;;;27.55;15.50;;;;;;;8.49;95.57;102218.66;5028912;28;20390;-77
2022/01/29 10:46:44;;;;;;;27.70;13.63;;;;;;;8.51;95.23;102205.19;5030199;28;20029;-77
2022/01/29 10:49:17;;;;;;;27.77;13.95;;;;;;;8.55;95.49;102193.38;5029919;28;20385;-77
2022/01/29 10:51:58;;;;;;;28.88;14.13;;;;;;;8.59;95.38;102200.34;5013592;28;20018;-77
2022/01/29 10:54:24;;;;;;;26.15;13.57;;;;;;;8.60;94.94;102196.75;5020624;28;20037;-77
2022/01/29 10:56:58;;;;;;;25.40;12.65;;;;;;;8.63;94.53;102201.09;5020385;28;20034;-77
2022/01/29 10:59:26;;;;;;;26.48;13.70;;;;;;;8.65;94.74;102205.44;5010897;28;20030;-77
2022/01/29 11:01:58;;;;;;;22.00;12.38;;;;;;;8.66;94.19;102196.47;5021035;28;20025;-77
2022/01/29 11:04:27;;;;;;;25.27;12.10;;;;;;;8.69;94.31;102190.09;5029572;28;20476;-77
2022/01/29 11:06:53;;;;;;;24.98;11.93;;;;;;;8.72;93.37;102184.59;5041600;28;20028;-77
2022/01/29 11:09:21;;;;;;;24.80;11.10;;;;;;;8.78;93.60;102188.84;5026043;28;20034;-77
2022/01/29 11:11:46;;;;;;;23.05;10.43;;;;;;;8.80;93.23;102182.47;5025542;28;20040;-77
2022/01/29 11:14:14;;;;;;;22.90;11.10;;;;;;;8.81;93.14;102188.69;5020703;28;20055;-77
2022/01/29 11:16:41;;;;;;;23.65;9.45;;;;;;;8.83;92.59;102182.34;5014879;28;20033;-77
2022/01/29 11:19:07;;;;;;;22.38;9.38;;;;;;;8.86;92.45;102173.28;5024525;28;20064;-77
2022/01/29 11:21:33;;;;;;;24.92;9.10;;;;;;;8.87;92.14;102166.97;5029449;28;20065;-78
2022/01/29 11:23:59;;;;;;;23.50;8.35;;;;;;;8.87;92.57;102175.91;5010510;28;20037;-77